sensor_id;sensor_type;location;lat;lon;timestamp;P1;durP1;ratioP1;P2;durP2;ratioP2
7485;SDS011;3784;54.098;9.998;2023-02-11T00:00:39;29.33;;;12.07;;
7485;SDS011;3784;54.098;9.998;2023-02-11T00:03:06;24.83;;;11.17;;
7485;SDS011;3784;54.098;9.998;2023-02-11T00:05:33;28.47;;;11.27;;
7485;SDS011;3784;54.098;9.998;2023-02-11T00:08:00;28.10;;;10.70;;
7485;SDS011;3784;54.098;9.998;2023-02-11T00:10:27;21.37;;;10.13;;
7485;SDS011;3784;54.098;9.998;2023-02-11T00:12:54;26.43;;;10.77;;
7485;SDS011;3784;54.098;9.998;2023-02-11T00:15:22;24.70;;;10.90;;
7485;SDS011;3784;54.098;9.998;2023-02-11T00:17:49;24.50;;;10.77;;
7485;SDS011;3784;54.098;9.998;2023-02-11T00:20:16;21.83;;;10.63;;
7485;SDS011;3784;54.098;9.998;2023-02-11T00:22:43;27.47;;;11.07;;
7485;SDS011;3784;54.098;9.998;2023-02-11T00:25:11;19.47;;;10.67;;
7485;SDS011;3784;54.098;9.998;2023-02-11T00:27:41;20.63;;;10.63;;
7485;SDS011;3784;54.098;9.998;2023-02-11T00:30:10;19.97;;;11.10;;
7485;SDS011;3784;54.098;9.998;2023-02-11T00:32:45;25.33;;;11.10;;
7485;SDS011;3784;54.098;9.998;2023-02-11T00:35:35;24.60;;;10.90;;
7485;SDS011;3784;54.098;9.998;2023-02-11T00:38:02;21.33;;;11.23;;
7485;SDS011;3784;54.098;9.998;2023-02-11T00:40:29;23.47;;;11.27;;
7485;SDS011;3784;54.098;9.998;2023-02-11T00:43:14;22.43;;;10.70;;
7485;SDS011;3784;54.098;9.998;2023-02-11T00:45:58;20.77;;;11.47;;
7485;SDS011;3784;54.098;9.998;2023-02-11T00:49:07;21.93;;;11.47;;
7485;SDS011;3784;54.098;9.998;2023-02-11T00:52:14;25.27;;;11.63;;
7485;SDS011;3784;54.098;9.998;2023-02-11T00:55:21;26.07;;;12.17;;
7485;SDS011;3784;54.098;9.998;2023-02-11T01:01:40;22.67;;;11.87;;
7485;SDS011;3784;54.098;9.998;2023-02-11T01:04:08;24.07;;;13.23;;
7485;SDS011;3784;54.098;9.998;2023-02-11T01:06:38;28.97;;;12.27;;
7485;SDS011;3784;54.098;9.998;2023-02-11T01:09:04;34.03;;;13.13;;
7485;SDS011;3784;54.098;9.998;2023-02-11T01:11:31;23.00;;;13.03;;
7485;SDS011;3784;54.098;9.998;2023-02-11T01:13:57;29.53;;;13.97;;
7485;SDS011;3784;54.098;9.998;2023-02-11T01:16:24;27.27;;;12.43;;
7485;SDS011;3784;54.098;9.998;2023-02-11T01:18:50;29.63;;;13.63;;
7485;SDS011;3784;54.098;9.998;2023-02-11T01:21:17;31.60;;;13.40;;
7485;SDS011;3784;54.098;9.998;2023-02-11T01:23:44;31.43;;;13.13;;
7485;SDS011;3784;54.098;9.998;2023-02-11T01:26:10;30.40;;;13.53;;
7485;SDS011;3784;54.098;9.998;2023-02-11T01:28:37;37.03;;;15.13;;
7485;SDS011;3784;54.098;9.998;2023-02-11T01:31:03;35.93;;;14.60;;
7485;SDS011;3784;54.098;9.998;2023-02-11T01:33:30;35.30;;;13.80;;
7485;SDS011;3784;54.098;9.998;2023-02-11T01:36:03;40.27;;;15.00;;
7485;SDS011;3784;54.098;9.998;2023-02-11T01:38:31;35.50;;;14.80;;
7485;SDS011;3784;54.098;9.998;2023-02-11T01:40:59;35.03;;;15.50;;
7485;SDS011;3784;54.098;9.998;2023-02-11T01:43:30;51.77;;;16.83;;
7485;SDS011;3784;54.098;9.998;2023-02-11T01:45:59;38.20;;;15.50;;
7485;SDS011;3784;54.098;9.998;2023-02-11T01:48:37;40.67;;;16.77;;
7485;SDS011;3784;54.098;9.998;2023-02-11T01:51:23;43.13;;;16.47;;
7485;SDS011;3784;54.098;9.998;2023-02-11T01:53:52;43.33;;;16.40;;
7485;SDS011;3784;54.098;9.998;2023-02-11T01:56:38;41.63;;;15.93;;
7485;SDS011;3784;54.098;9.998;2023-02-11T01:59:29;43.87;;;16.00;;
7485;SDS011;3784;54.098;9.998;2023-02-11T02:01:59;54.20;;;16.77;;
7485;SDS011;3784;54.098;9.998;2023-02-11T02:04:30;36.90;;;15.90;;
7485;SDS011;3784;54.098;9.998;2023-02-11T02:07:05;45.33;;;16.27;;
7485;SDS011;3784;54.098;9.998;2023-02-11T02:09:39;49.23;;;16.53;;
7485;SDS011;3784;54.098;9.998;2023-02-11T02:12:07;43.63;;;15.77;;
7485;SDS011;3784;54.098;9.998;2023-02-11T02:14:38;40.13;;;16.33;;
7485;SDS011;3784;54.098;9.998;2023-02-11T02:17:06;42.20;;;15.23;;
7485;SDS011;3784;54.098;9.998;2023-02-11T02:20:10;39.57;;;14.67;;
7485;SDS011;3784;54.098;9.998;2023-02-11T02:23:00;49.53;;;16.27;;
7485;SDS011;3784;54.098;9.998;2023-02-11T02:31:20;40.10;;;15.23;;
7485;SDS011;3784;54.098;9.998;2023-02-11T02:36:30;41.13;;;14.87;;
7485;SDS011;3784;54.098;9.998;2023-02-11T02:39:17;45.80;;;15.80;;
7485;SDS011;3784;54.098;9.998;2023-02-11T02:41:47;45.27;;;15.87;;
7485;SDS011;3784;54.098;9.998;2023-02-11T02:44:15;40.23;;;15.30;;
7485;SDS011;3784;54.098;9.998;2023-02-11T02:46:43;44.80;;;15.23;;
7485;SDS011;3784;54.098;9.998;2023-02-11T02:49:11;53.00;;;15.73;;
7485;SDS011;3784;54.098;9.998;2023-02-11T02:54:38;38.47;;;15.00;;
7485;SDS011;3784;54.098;9.998;2023-02-11T03:03:15;39.93;;;14.90;;
7485;SDS011;3784;54.098;9.998;2023-02-11T03:05:52;31.93;;;14.00;;
7485;SDS011;3784;54.098;9.998;2023-02-11T03:08:29;39.37;;;13.93;;
7485;SDS011;3784;54.098;9.998;2023-02-11T03:11:00;35.63;;;15.33;;
7485;SDS011;3784;54.098;9.998;2023-02-11T03:13:28;35.63;;;14.63;;
7485;SDS011;3784;54.098;9.998;2023-02-11T03:16:00;43.93;;;14.43;;
7485;SDS011;3784;54.098;9.998;2023-02-11T03:18:37;37.97;;;13.63;;
7485;SDS011;3784;54.098;9.998;2023-02-11T03:21:05;41.10;;;14.43;;
7485;SDS011;3784;54.098;9.998;2023-02-11T03:23:35;43.07;;;15.67;;
7485;SDS011;3784;54.098;9.998;2023-02-11T03:26:13;49.47;;;14.80;;
7485;SDS011;3784;54.098;9.998;2023-02-11T03:31:37;39.47;;;14.13;;
7485;SDS011;3784;54.098;9.998;2023-02-11T03:34:11;43.97;;;13.33;;
7485;SDS011;3784;54.098;9.998;2023-02-11T03:36:55;36.40;;;12.97;;
7485;SDS011;3784;54.098;9.998;2023-02-11T03:39:30;44.10;;;13.40;;
7485;SDS011;3784;54.098;9.998;2023-02-11T03:42:00;30.07;;;12.77;;
7485;SDS011;3784;54.098;9.998;2023-02-11T03:44:29;41.33;;;14.00;;
7485;SDS011;3784;54.098;9.998;2023-02-11T03:46:58;40.17;;;14.20;;
7485;SDS011;3784;54.098;9.998;2023-02-11T03:49:26;35.73;;;11.60;;
7485;SDS011;3784;54.098;9.998;2023-02-11T03:51:53;32.07;;;13.10;;
7485;SDS011;3784;54.098;9.998;2023-02-11T03:54:25;37.97;;;13.80;;
7485;SDS011;3784;54.098;9.998;2023-02-11T03:56:54;35.43;;;13.87;;
7485;SDS011;3784;54.098;9.998;2023-02-11T03:59:23;36.40;;;12.63;;
7485;SDS011;3784;54.098;9.998;2023-02-11T04:01:49;28.73;;;13.03;;
7485;SDS011;3784;54.098;9.998;2023-02-11T04:04:19;40.43;;;13.73;;
7485;SDS011;3784;54.098;9.998;2023-02-11T04:06:46;41.40;;;14.67;;
7485;SDS011;3784;54.098;9.998;2023-02-11T04:09:13;39.83;;;13.07;;
7485;SDS011;3784;54.098;9.998;2023-02-11T04:11:40;36.50;;;13.13;;
7485;SDS011;3784;54.098;9.998;2023-02-11T04:14:09;36.63;;;13.60;;
7485;SDS011;3784;54.098;9.998;2023-02-11T04:16:35;35.90;;;14.07;;
7485;SDS011;3784;54.098;9.998;2023-02-11T04:19:02;38.07;;;13.80;;
7485;SDS011;3784;54.098;9.998;2023-02-11T04:21:29;37.80;;;14.20;;
7485;SDS011;3784;54.098;9.998;2023-02-11T04:23:55;32.63;;;11.80;;
7485;SDS011;3784;54.098;9.998;2023-02-11T04:26:22;37.53;;;14.37;;
7485;SDS011;3784;54.098;9.998;2023-02-11T04:28:49;41.43;;;14.43;;
7485;SDS011;3784;54.098;9.998;2023-02-11T04:31:17;40.43;;;14.53;;
7485;SDS011;3784;54.098;9.998;2023-02-11T04:33:44;37.33;;;13.63;;
7485;SDS011;3784;54.098;9.998;2023-02-11T04:36:11;33.80;;;13.47;;
7485;SDS011;3784;54.098;9.998;2023-02-11T04:38:38;34.10;;;14.27;;
7485;SDS011;3784;54.098;9.998;2023-02-11T04:41:04;42.60;;;14.97;;
7485;SDS011;3784;54.098;9.998;2023-02-11T04:43:31;33.67;;;12.73;;
7485;SDS011;3784;54.098;9.998;2023-02-11T04:45:57;33.70;;;13.23;;
7485;SDS011;3784;54.098;9.998;2023-02-11T04:48:24;42.43;;;15.03;;
7485;SDS011;3784;54.098;9.998;2023-02-11T04:50:52;41.73;;;16.53;;
7485;SDS011;3784;54.098;9.998;2023-02-11T04:53:19;41.50;;;16.10;;
7485;SDS011;3784;54.098;9.998;2023-02-11T04:55:49;42.00;;;16.23;;
7485;SDS011;3784;54.098;9.998;2023-02-11T04:58:17;42.43;;;16.80;;
7485;SDS011;3784;54.098;9.998;2023-02-11T05:00:45;39.30;;;17.60;;
7485;SDS011;3784;54.098;9.998;2023-02-11T05:03:11;50.13;;;18.73;;
7485;SDS011;3784;54.098;9.998;2023-02-11T05:05:39;42.23;;;18.27;;
7485;SDS011;3784;54.098;9.998;2023-02-11T05:08:06;45.53;;;16.53;;
7485;SDS011;3784;54.098;9.998;2023-02-11T05:10:33;45.57;;;18.10;;
7485;SDS011;3784;54.098;9.998;2023-02-11T05:13:00;47.20;;;17.63;;
7485;SDS011;3784;54.098;9.998;2023-02-11T05:15:27;58.30;;;19.43;;
7485;SDS011;3784;54.098;9.998;2023-02-11T05:17:53;41.37;;;17.00;;
7485;SDS011;3784;54.098;9.998;2023-02-11T05:20:20;58.07;;;18.97;;
7485;SDS011;3784;54.098;9.998;2023-02-11T05:22:47;48.73;;;18.17;;
7485;SDS011;3784;54.098;9.998;2023-02-11T05:25:14;50.83;;;16.63;;
7485;SDS011;3784;54.098;9.998;2023-02-11T05:27:40;43.10;;;17.13;;
7485;SDS011;3784;54.098;9.998;2023-02-11T05:30:07;51.23;;;17.00;;
7485;SDS011;3784;54.098;9.998;2023-02-11T05:32:34;50.93;;;18.27;;
7485;SDS011;3784;54.098;9.998;2023-02-11T05:35:01;46.40;;;14.87;;
7485;SDS011;3784;54.098;9.998;2023-02-11T05:37:28;44.73;;;17.10;;
7485;SDS011;3784;54.098;9.998;2023-02-11T05:39:54;52.03;;;16.67;;
7485;SDS011;3784;54.098;9.998;2023-02-11T05:42:21;41.93;;;17.10;;
7485;SDS011;3784;54.098;9.998;2023-02-11T05:44:47;44.13;;;15.67;;
7485;SDS011;3784;54.098;9.998;2023-02-11T05:47:15;37.70;;;13.77;;
7485;SDS011;3784;54.098;9.998;2023-02-11T05:49:42;49.57;;;15.23;;
7485;SDS011;3784;54.098;9.998;2023-02-11T05:52:09;43.23;;;15.47;;
7485;SDS011;3784;54.098;9.998;2023-02-11T05:54:35;37.77;;;14.97;;
7485;SDS011;3784;54.098;9.998;2023-02-11T05:57:02;50.57;;;17.03;;
7485;SDS011;3784;54.098;9.998;2023-02-11T05:59:28;43.70;;;14.13;;
7485;SDS011;3784;54.098;9.998;2023-02-11T06:01:55;34.67;;;14.00;;
7485;SDS011;3784;54.098;9.998;2023-02-11T06:04:22;45.20;;;15.27;;
7485;SDS011;3784;54.098;9.998;2023-02-11T06:06:48;40.87;;;13.70;;
7485;SDS011;3784;54.098;9.998;2023-02-11T06:09:15;36.97;;;14.63;;
7485;SDS011;3784;54.098;9.998;2023-02-11T06:11:41;39.27;;;13.97;;
7485;SDS011;3784;54.098;9.998;2023-02-11T06:14:08;38.43;;;12.93;;
7485;SDS011;3784;54.098;9.998;2023-02-11T06:16:36;43.33;;;14.60;;
7485;SDS011;3784;54.098;9.998;2023-02-11T06:19:02;32.07;;;13.73;;
7485;SDS011;3784;54.098;9.998;2023-02-11T06:21:29;42.00;;;14.07;;
7485;SDS011;3784;54.098;9.998;2023-02-11T06:24:08;35.03;;;14.50;;
7485;SDS011;3784;54.098;9.998;2023-02-11T06:26:35;42.03;;;13.53;;
7485;SDS011;3784;54.098;9.998;2023-02-11T06:29:02;38.77;;;15.00;;
7485;SDS011;3784;54.098;9.998;2023-02-11T06:31:28;43.63;;;14.30;;
7485;SDS011;3784;54.098;9.998;2023-02-11T06:33:55;38.33;;;14.60;;
7485;SDS011;3784;54.098;9.998;2023-02-11T06:36:22;37.77;;;14.63;;
7485;SDS011;3784;54.098;9.998;2023-02-11T06:38:49;36.30;;;13.87;;
7485;SDS011;3784;54.098;9.998;2023-02-11T06:41:16;41.77;;;14.50;;
7485;SDS011;3784;54.098;9.998;2023-02-11T06:43:45;33.47;;;13.43;;
7485;SDS011;3784;54.098;9.998;2023-02-11T06:46:12;31.57;;;13.47;;
7485;SDS011;3784;54.098;9.998;2023-02-11T06:48:38;33.23;;;14.83;;
7485;SDS011;3784;54.098;9.998;2023-02-11T06:51:08;39.73;;;14.63;;
7485;SDS011;3784;54.098;9.998;2023-02-11T06:53:36;42.13;;;17.00;;
7485;SDS011;3784;54.098;9.998;2023-02-11T06:56:07;38.20;;;15.93;;
7485;SDS011;3784;54.098;9.998;2023-02-11T06:58:35;36.90;;;15.43;;
7485;SDS011;3784;54.098;9.998;2023-02-11T07:01:03;38.43;;;15.80;;
7485;SDS011;3784;54.098;9.998;2023-02-11T07:03:32;36.03;;;16.33;;
7485;SDS011;3784;54.098;9.998;2023-02-11T07:06:01;29.47;;;14.97;;
7485;SDS011;3784;54.098;9.998;2023-02-11T07:08:30;39.33;;;17.23;;
7485;SDS011;3784;54.098;9.998;2023-02-11T07:10:57;36.20;;;18.30;;
7485;SDS011;3784;54.098;9.998;2023-02-11T07:13:24;38.90;;;15.80;;
7485;SDS011;3784;54.098;9.998;2023-02-11T07:15:50;38.50;;;15.60;;
7485;SDS011;3784;54.098;9.998;2023-02-11T07:18:17;33.00;;;15.23;;
7485;SDS011;3784;54.098;9.998;2023-02-11T07:20:44;35.87;;;14.87;;
7485;SDS011;3784;54.098;9.998;2023-02-11T07:23:10;36.03;;;17.13;;
7485;SDS011;3784;54.098;9.998;2023-02-11T07:25:37;46.40;;;16.63;;
7485;SDS011;3784;54.098;9.998;2023-02-11T07:28:03;39.97;;;17.03;;
7485;SDS011;3784;54.098;9.998;2023-02-11T07:30:30;39.00;;;16.03;;
7485;SDS011;3784;54.098;9.998;2023-02-11T07:32:57;34.07;;;16.07;;
7485;SDS011;3784;54.098;9.998;2023-02-11T07:35:23;39.93;;;17.10;;
7485;SDS011;3784;54.098;9.998;2023-02-11T07:37:50;35.90;;;17.20;;
7485;SDS011;3784;54.098;9.998;2023-02-11T07:40:16;43.97;;;17.60;;
7485;SDS011;3784;54.098;9.998;2023-02-11T07:42:43;34.90;;;15.50;;
7485;SDS011;3784;54.098;9.998;2023-02-11T07:45:10;38.60;;;16.30;;
7485;SDS011;3784;54.098;9.998;2023-02-11T07:47:36;28.23;;;13.90;;
7485;SDS011;3784;54.098;9.998;2023-02-11T07:50:03;36.73;;;15.37;;
7485;SDS011;3784;54.098;9.998;2023-02-11T07:52:30;36.70;;;16.47;;
7485;SDS011;3784;54.098;9.998;2023-02-11T07:54:57;33.80;;;17.07;;
7485;SDS011;3784;54.098;9.998;2023-02-11T07:57:23;36.40;;;17.43;;
7485;SDS011;3784;54.098;9.998;2023-02-11T07:59:50;43.00;;;16.97;;
7485;SDS011;3784;54.098;9.998;2023-02-11T08:02:16;28.30;;;12.50;;
7485;SDS011;3784;54.098;9.998;2023-02-11T08:04:44;36.33;;;15.40;;
7485;SDS011;3784;54.098;9.998;2023-02-11T08:07:15;35.03;;;14.80;;
7485;SDS011;3784;54.098;9.998;2023-02-11T08:09:42;33.73;;;15.90;;
7485;SDS011;3784;54.098;9.998;2023-02-11T08:12:09;40.70;;;15.57;;
7485;SDS011;3784;54.098;9.998;2023-02-11T08:14:36;42.70;;;14.60;;
7485;SDS011;3784;54.098;9.998;2023-02-11T08:17:02;39.77;;;15.73;;
7485;SDS011;3784;54.098;9.998;2023-02-11T08:19:29;33.07;;;12.20;;
7485;SDS011;3784;54.098;9.998;2023-02-11T08:21:57;38.43;;;13.87;;
7485;SDS011;3784;54.098;9.998;2023-02-11T08:24:25;38.93;;;15.33;;
7485;SDS011;3784;54.098;9.998;2023-02-11T08:26:52;37.87;;;15.03;;
7485;SDS011;3784;54.098;9.998;2023-02-11T08:29:18;38.17;;;15.17;;
7485;SDS011;3784;54.098;9.998;2023-02-11T08:31:45;40.37;;;15.23;;
7485;SDS011;3784;54.098;9.998;2023-02-11T08:34:13;43.07;;;16.10;;
7485;SDS011;3784;54.098;9.998;2023-02-11T08:36:43;36.83;;;15.37;;
7485;SDS011;3784;54.098;9.998;2023-02-11T08:39:12;35.87;;;14.70;;
7485;SDS011;3784;54.098;9.998;2023-02-11T08:41:52;37.17;;;15.07;;
7485;SDS011;3784;54.098;9.998;2023-02-11T08:44:19;31.77;;;13.67;;
7485;SDS011;3784;54.098;9.998;2023-02-11T08:46:46;28.53;;;12.00;;
7485;SDS011;3784;54.098;9.998;2023-02-11T08:49:13;29.77;;;13.10;;
7485;SDS011;3784;54.098;9.998;2023-02-11T08:51:40;37.00;;;15.63;;
7485;SDS011;3784;54.098;9.998;2023-02-11T08:54:06;30.83;;;14.03;;
7485;SDS011;3784;54.098;9.998;2023-02-11T08:56:35;37.50;;;14.63;;
7485;SDS011;3784;54.098;9.998;2023-02-11T08:59:03;39.13;;;14.23;;
7485;SDS011;3784;54.098;9.998;2023-02-11T09:01:30;29.40;;;13.33;;
7485;SDS011;3784;54.098;9.998;2023-02-11T09:03:57;37.70;;;15.00;;
7485;SDS011;3784;54.098;9.998;2023-02-11T09:06:25;36.13;;;13.37;;
7485;SDS011;3784;54.098;9.998;2023-02-11T09:08:53;29.50;;;12.17;;
7485;SDS011;3784;54.098;9.998;2023-02-11T09:11:24;33.03;;;12.07;;
7485;SDS011;3784;54.098;9.998;2023-02-11T09:13:53;35.33;;;12.87;;
7485;SDS011;3784;54.098;9.998;2023-02-11T09:16:21;31.57;;;13.43;;
7485;SDS011;3784;54.098;9.998;2023-02-11T09:18:49;33.60;;;14.13;;
7485;SDS011;3784;54.098;9.998;2023-02-11T09:21:16;37.77;;;14.53;;
7485;SDS011;3784;54.098;9.998;2023-02-11T09:23:44;33.03;;;12.47;;
7485;SDS011;3784;54.098;9.998;2023-02-11T09:26:17;30.60;;;13.50;;
7485;SDS011;3784;54.098;9.998;2023-02-11T09:28:43;36.43;;;13.60;;
7485;SDS011;3784;54.098;9.998;2023-02-11T09:31:11;27.90;;;13.27;;
7485;SDS011;3784;54.098;9.998;2023-02-11T09:33:40;41.03;;;14.50;;
7485;SDS011;3784;54.098;9.998;2023-02-11T09:36:17;35.63;;;13.67;;
7485;SDS011;3784;54.098;9.998;2023-02-11T09:38:46;32.60;;;13.43;;
7485;SDS011;3784;54.098;9.998;2023-02-11T09:43:55;32.67;;;15.10;;
7485;SDS011;3784;54.098;9.998;2023-02-11T09:46:22;38.17;;;14.57;;
7485;SDS011;3784;54.098;9.998;2023-02-11T09:48:51;34.50;;;14.40;;
7485;SDS011;3784;54.098;9.998;2023-02-11T09:51:20;35.17;;;14.93;;
7485;SDS011;3784;54.098;9.998;2023-02-11T09:53:50;37.87;;;15.20;;
7485;SDS011;3784;54.098;9.998;2023-02-11T09:56:19;37.53;;;14.23;;
7485;SDS011;3784;54.098;9.998;2023-02-11T09:58:46;36.47;;;12.90;;
7485;SDS011;3784;54.098;9.998;2023-02-11T10:04:06;32.07;;;13.33;;
7485;SDS011;3784;54.098;9.998;2023-02-11T10:06:48;28.60;;;11.33;;
7485;SDS011;3784;54.098;9.998;2023-02-11T10:23:12;24.00;;;11.87;;
7485;SDS011;3784;54.098;9.998;2023-02-11T10:25:42;29.47;;;11.93;;
7485;SDS011;3784;54.098;9.998;2023-02-11T10:28:21;24.43;;;11.03;;
7485;SDS011;3784;54.098;9.998;2023-02-11T10:31:43;23.67;;;10.23;;
7485;SDS011;3784;54.098;9.998;2023-02-11T10:34:04;22.23;;;10.83;;
7485;SDS011;3784;54.098;9.998;2023-02-11T10:36:35;25.90;;;8.57;;
7485;SDS011;3784;54.098;9.998;2023-02-11T10:41:44;18.30;;;9.23;;
7485;SDS011;3784;54.098;9.998;2023-02-11T10:44:18;26.97;;;9.17;;
7485;SDS011;3784;54.098;9.998;2023-02-11T10:46:58;20.67;;;9.47;;
7485;SDS011;3784;54.098;9.998;2023-02-11T10:52:12;16.07;;;8.47;;
7485;SDS011;3784;54.098;9.998;2023-02-11T10:57:24;24.00;;;11.17;;
7485;SDS011;3784;54.098;9.998;2023-02-11T10:59:58;22.07;;;8.20;;
7485;SDS011;3784;54.098;9.998;2023-02-11T11:02:29;29.60;;;9.77;;
7485;SDS011;3784;54.098;9.998;2023-02-11T11:05:24;20.87;;;9.63;;
7485;SDS011;3784;54.098;9.998;2023-02-11T11:07:58;25.57;;;8.40;;
7485;SDS011;3784;54.098;9.998;2023-02-11T11:13:22;23.30;;;7.33;;
7485;SDS011;3784;54.098;9.998;2023-02-11T11:16:16;18.50;;;7.37;;
7485;SDS011;3784;54.098;9.998;2023-02-11T11:18:40;19.43;;;5.93;;
7485;SDS011;3784;54.098;9.998;2023-02-11T11:23:59;15.83;;;3.87;;
7485;SDS011;3784;54.098;9.998;2023-02-11T11:26:27;14.50;;;4.97;;
7485;SDS011;3784;54.098;9.998;2023-02-11T11:29:09;22.37;;;5.83;;
7485;SDS011;3784;54.098;9.998;2023-02-11T11:31:50;17.00;;;5.03;;
7485;SDS011;3784;54.098;9.998;2023-02-11T11:40:09;19.27;;;4.70;;
7485;SDS011;3784;54.098;9.998;2023-02-11T11:43:00;22.00;;;4.67;;
7485;SDS011;3784;54.098;9.998;2023-02-11T11:45:30;18.57;;;5.00;;
7485;SDS011;3784;54.098;9.998;2023-02-11T11:48:04;15.10;;;3.97;;
7485;SDS011;3784;54.098;9.998;2023-02-11T11:51:01;18.67;;;4.40;;
7485;SDS011;3784;54.098;9.998;2023-02-11T11:53:38;10.73;;;3.60;;
7485;SDS011;3784;54.098;9.998;2023-02-11T11:56:13;13.97;;;3.40;;
7485;SDS011;3784;54.098;9.998;2023-02-11T11:58:41;14.03;;;4.47;;
7485;SDS011;3784;54.098;9.998;2023-02-11T12:09:17;14.93;;;4.20;;
7485;SDS011;3784;54.098;9.998;2023-02-11T12:20:24;8.53;;;2.87;;
7485;SDS011;3784;54.098;9.998;2023-02-11T12:23:16;6.97;;;2.60;;
7485;SDS011;3784;54.098;9.998;2023-02-11T12:28:24;10.10;;;2.27;;
7485;SDS011;3784;54.098;9.998;2023-02-11T12:31:10;8.17;;;2.77;;
7485;SDS011;3784;54.098;9.998;2023-02-11T12:42:43;10.60;;;2.90;;
7485;SDS011;3784;54.098;9.998;2023-02-11T12:48:51;12.30;;;2.67;;
7485;SDS011;3784;54.098;9.998;2023-02-11T12:51:40;9.50;;;2.93;;
7485;SDS011;3784;54.098;9.998;2023-02-11T12:54:18;9.57;;;2.50;;
7485;SDS011;3784;54.098;9.998;2023-02-11T12:57:06;6.27;;;2.17;;
7485;SDS011;3784;54.098;9.998;2023-02-11T13:11:11;10.83;;;2.90;;
7485;SDS011;3784;54.098;9.998;2023-02-11T13:21:53;9.60;;;2.40;;
7485;SDS011;3784;54.098;9.998;2023-02-11T13:24:37;8.73;;;2.00;;
7485;SDS011;3784;54.098;9.998;2023-02-11T13:35:37;7.47;;;2.57;;
7485;SDS011;3784;54.098;9.998;2023-02-11T13:38:05;6.73;;;2.70;;
7485;SDS011;3784;54.098;9.998;2023-02-11T13:40:43;6.80;;;1.73;;
7485;SDS011;3784;54.098;9.998;2023-02-11T13:43:20;10.07;;;2.10;;
7485;SDS011;3784;54.098;9.998;2023-02-11T13:45:48;5.40;;;1.97;;
7485;SDS011;3784;54.098;9.998;2023-02-11T13:48:20;5.23;;;1.43;;
7485;SDS011;3784;54.098;9.998;2023-02-11T13:50:50;5.27;;;1.83;;
7485;SDS011;3784;54.098;9.998;2023-02-11T13:53:19;4.37;;;2.07;;
7485;SDS011;3784;54.098;9.998;2023-02-11T13:55:46;4.33;;;2.07;;
7485;SDS011;3784;54.098;9.998;2023-02-11T14:00:53;4.27;;;1.80;;
7485;SDS011;3784;54.098;9.998;2023-02-11T14:03:27;8.67;;;2.83;;
7485;SDS011;3784;54.098;9.998;2023-02-11T14:06:29;4.13;;;1.70;;
7485;SDS011;3784;54.098;9.998;2023-02-11T14:11:43;6.20;;;2.43;;
7485;SDS011;3784;54.098;9.998;2023-02-11T14:14:18;5.70;;;1.90;;
7485;SDS011;3784;54.098;9.998;2023-02-11T14:19:39;11.47;;;2.40;;
7485;SDS011;3784;54.098;9.998;2023-02-11T14:22:12;6.83;;;2.33;;
7485;SDS011;3784;54.098;9.998;2023-02-11T14:24:48;7.97;;;2.70;;
7485;SDS011;3784;54.098;9.998;2023-02-11T14:33:44;12.97;;;3.43;;
7485;SDS011;3784;54.098;9.998;2023-02-11T14:36:22;7.23;;;1.97;;
7485;SDS011;3784;54.098;9.998;2023-02-11T14:39:15;6.70;;;2.53;;
7485;SDS011;3784;54.098;9.998;2023-02-11T14:41:48;7.97;;;2.60;;
7485;SDS011;3784;54.098;9.998;2023-02-11T14:44:20;5.33;;;2.40;;
7485;SDS011;3784;54.098;9.998;2023-02-11T14:46:49;7.33;;;2.47;;
7485;SDS011;3784;54.098;9.998;2023-02-11T14:49:23;7.77;;;3.00;;
7485;SDS011;3784;54.098;9.998;2023-02-11T14:51:53;8.67;;;3.03;;
7485;SDS011;3784;54.098;9.998;2023-02-11T14:54:23;8.53;;;2.77;;
7485;SDS011;3784;54.098;9.998;2023-02-11T14:57:06;11.20;;;3.30;;
7485;SDS011;3784;54.098;9.998;2023-02-11T14:59:54;13.00;;;3.20;;
7485;SDS011;3784;54.098;9.998;2023-02-11T15:02:27;10.13;;;3.67;;
7485;SDS011;3784;54.098;9.998;2023-02-11T15:07:51;11.70;;;3.90;;
7485;SDS011;3784;54.098;9.998;2023-02-11T15:10:26;9.60;;;3.83;;
7485;SDS011;3784;54.098;9.998;2023-02-11T15:12:55;13.57;;;3.70;;
7485;SDS011;3784;54.098;9.998;2023-02-11T15:15:21;11.40;;;3.17;;
7485;SDS011;3784;54.098;9.998;2023-02-11T15:17:48;10.40;;;3.20;;
7485;SDS011;3784;54.098;9.998;2023-02-11T15:20:19;8.80;;;2.73;;
7485;SDS011;3784;54.098;9.998;2023-02-11T15:22:48;7.70;;;2.50;;
7485;SDS011;3784;54.098;9.998;2023-02-11T15:25:17;11.93;;;2.93;;
7485;SDS011;3784;54.098;9.998;2023-02-11T15:27:46;10.20;;;2.60;;
7485;SDS011;3784;54.098;9.998;2023-02-11T15:32:50;6.17;;;2.80;;
7485;SDS011;3784;54.098;9.998;2023-02-11T15:38:03;8.40;;;2.93;;
7485;SDS011;3784;54.098;9.998;2023-02-11T15:40:31;8.63;;;2.60;;
7485;SDS011;3784;54.098;9.998;2023-02-11T15:43:09;7.23;;;3.63;;
7485;SDS011;3784;54.098;9.998;2023-02-11T15:45:40;11.73;;;4.40;;
7485;SDS011;3784;54.098;9.998;2023-02-11T15:50:41;9.87;;;3.43;;
7485;SDS011;3784;54.098;9.998;2023-02-11T15:55:53;9.90;;;3.20;;
7485;SDS011;3784;54.098;9.998;2023-02-11T15:58:27;9.50;;;4.03;;
7485;SDS011;3784;54.098;9.998;2023-02-11T16:00:53;10.90;;;3.80;;
7485;SDS011;3784;54.098;9.998;2023-02-11T16:03:25;13.10;;;3.50;;
7485;SDS011;3784;54.098;9.998;2023-02-11T16:11:52;10.57;;;3.70;;
7485;SDS011;3784;54.098;9.998;2023-02-11T16:19:41;9.23;;;2.90;;
7485;SDS011;3784;54.098;9.998;2023-02-11T16:22:10;11.60;;;3.80;;
7485;SDS011;3784;54.098;9.998;2023-02-11T16:24:39;9.13;;;2.83;;
7485;SDS011;3784;54.098;9.998;2023-02-11T16:27:25;8.50;;;3.10;;
7485;SDS011;3784;54.098;9.998;2023-02-11T16:29:55;8.47;;;3.43;;
7485;SDS011;3784;54.098;9.998;2023-02-11T16:32:26;10.67;;;3.10;;
7485;SDS011;3784;54.098;9.998;2023-02-11T16:34:56;7.30;;;2.90;;
7485;SDS011;3784;54.098;9.998;2023-02-11T16:37:25;6.40;;;2.80;;
7485;SDS011;3784;54.098;9.998;2023-02-11T16:39:52;10.67;;;2.83;;
7485;SDS011;3784;54.098;9.998;2023-02-11T16:42:20;6.40;;;2.47;;
7485;SDS011;3784;54.098;9.998;2023-02-11T16:44:46;8.37;;;3.17;;
7485;SDS011;3784;54.098;9.998;2023-02-11T16:47:16;6.20;;;3.33;;
7485;SDS011;3784;54.098;9.998;2023-02-11T16:49:46;8.87;;;3.50;;
7485;SDS011;3784;54.098;9.998;2023-02-11T16:52:13;6.87;;;3.03;;
7485;SDS011;3784;54.098;9.998;2023-02-11T16:54:41;9.07;;;3.30;;
7485;SDS011;3784;54.098;9.998;2023-02-11T16:57:09;8.57;;;3.00;;
7485;SDS011;3784;54.098;9.998;2023-02-11T16:59:39;10.60;;;3.53;;
7485;SDS011;3784;54.098;9.998;2023-02-11T17:02:09;9.93;;;3.70;;
7485;SDS011;3784;54.098;9.998;2023-02-11T17:04:39;9.23;;;4.20;;
7485;SDS011;3784;54.098;9.998;2023-02-11T17:07:06;9.10;;;5.03;;
7485;SDS011;3784;54.098;9.998;2023-02-11T17:09:32;6.70;;;3.13;;
7485;SDS011;3784;54.098;9.998;2023-02-11T17:11:59;8.90;;;3.70;;
7485;SDS011;3784;54.098;9.998;2023-02-11T17:14:26;6.57;;;3.27;;
7485;SDS011;3784;54.098;9.998;2023-02-11T17:16:52;9.73;;;4.10;;
7485;SDS011;3784;54.098;9.998;2023-02-11T17:19:19;11.17;;;4.53;;
7485;SDS011;3784;54.098;9.998;2023-02-11T17:21:48;10.87;;;4.90;;
7485;SDS011;3784;54.098;9.998;2023-02-11T17:24:16;11.33;;;5.33;;
7485;SDS011;3784;54.098;9.998;2023-02-11T17:26:43;16.70;;;4.73;;
7485;SDS011;3784;54.098;9.998;2023-02-11T17:29:11;11.77;;;5.33;;
7485;SDS011;3784;54.098;9.998;2023-02-11T17:31:39;9.90;;;4.40;;
7485;SDS011;3784;54.098;9.998;2023-02-11T17:34:06;9.17;;;4.63;;
7485;SDS011;3784;54.098;9.998;2023-02-11T17:36:33;8.37;;;3.77;;
7485;SDS011;3784;54.098;9.998;2023-02-11T17:39:00;12.80;;;4.90;;
7485;SDS011;3784;54.098;9.998;2023-02-11T17:41:27;8.73;;;4.00;;
7485;SDS011;3784;54.098;9.998;2023-02-11T17:43:56;9.60;;;5.50;;
7485;SDS011;3784;54.098;9.998;2023-02-11T17:46:23;7.93;;;4.27;;
7485;SDS011;3784;54.098;9.998;2023-02-11T17:48:50;11.30;;;5.37;;
7485;SDS011;3784;54.098;9.998;2023-02-11T17:51:37;7.57;;;4.17;;
7485;SDS011;3784;54.098;9.998;2023-02-11T17:54:05;7.93;;;4.67;;
7485;SDS011;3784;54.098;9.998;2023-02-11T17:56:34;8.60;;;3.73;;
7485;SDS011;3784;54.098;9.998;2023-02-11T17:59:01;11.47;;;4.37;;